sensor_id;sensor_type;location;lat;lon;timestamp;pressure;altitude;pressure_sealevel;temperature;humidity
50166;BME280;36071;48.140;11.516;2023-04-19T00:00:54;95950.0;;;9.3;82.1
50166;BME280;36071;48.140;11.516;2023-04-19T00:05:54;95960.0;;;9.3;81.7
50166;BME280;36071;48.140;11.516;2023-04-19T00:10:54;95940.0;;;9.2;82.4
50166;BME280;36071;48.140;11.516;2023-04-19T00:15:54;95940.0;;;9.3;82.1
50166;BME280;36071;48.140;11.516;2023-04-19T00:20:54;95930.0;;;9.3;81.9
50166;BME280;36071;48.140;11.516;2023-04-19T00:25:55;95940.0;;;9.2;82.0
50166;BME280;36071;48.140;11.516;2023-04-19T00:30:54;95940.0;;;9.2;82.1
50166;BME280;36071;48.140;11.516;2023-04-19T00:35:54;95930.0;;;9.2;82.4
50166;BME280;36071;48.140;11.516;2023-04-19T00:40:54;95930.0;;;9.2;81.8
50166;BME280;36071;48.140;11.516;2023-04-19T00:45:54;95930.0;;;9.2;82.1
50166;BME280;36071;48.140;11.516;2023-04-19T00:50:54;95920.0;;;9.1;82.0
50166;BME280;36071;48.140;11.516;2023-04-19T00:55:54;95920.0;;;9.1;81.8
50166;BME280;36071;48.140;11.516;2023-04-19T01:00:54;95910.0;;;9.1;81.5
50166;BME280;36071;48.140;11.516;2023-04-19T01:05:54;95910.0;;;9.1;81.8
50166;BME280;36071;48.140;11.516;2023-04-19T01:10:54;95920.0;;;9.1;81.8
50166;BME280;36071;48.140;11.516;2023-04-19T01:15:54;95910.0;;;9.0;82.9
50166;BME280;36071;48.140;11.516;2023-04-19T01:20:54;95900.0;;;9.0;82.9
50166;BME280;36071;48.140;11.516;2023-04-19T01:25:54;95890.0;;;9.0;83.1
50166;BME280;36071;48.140;11.516;2023-04-19T01:30:54;95890.0;;;9.0;83.0
50166;BME280;36071;48.140;11.516;2023-04-19T01:35:54;95890.0;;;8.9;83.8
50166;BME280;36071;48.140;11.516;2023-04-19T01:40:54;95890.0;;;9.0;83.7
50166;BME280;36071;48.140;11.516;2023-04-19T01:45:54;95880.0;;;8.9;84.1
50166;BME280;36071;48.140;11.516;2023-04-19T01:50:54;95890.0;;;9.0;83.9
50166;BME280;36071;48.140;11.516;2023-04-19T01:55:54;95880.0;;;9.0;83.7
50166;BME280;36071;48.140;11.516;2023-04-19T02:00:54;95870.0;;;9.0;83.9
50166;BME280;36071;48.140;11.516;2023-04-19T02:05:54;95880.0;;;8.9;84.0
50166;BME280;36071;48.140;11.516;2023-04-19T02:10:54;95870.0;;;8.8;84.6
50166;BME280;36071;48.140;11.516;2023-04-19T02:15:54;95860.0;;;8.8;86.5
50166;BME280;36071;48.140;11.516;2023-04-19T02:20:54;95860.0;;;8.8;87.5
50166;BME280;36071;48.140;11.516;2023-04-19T02:25:54;95860.0;;;8.6;89.7
50166;BME280;36071;48.140;11.516;2023-04-19T02:30:54;95850.0;;;8.6;91.0
50166;BME280;36071;48.140;11.516;2023-04-19T02:35:54;95850.0;;;8.6;92.6
50166;BME280;36071;48.140;11.516;2023-04-19T02:40:54;95840.0;;;8.6;92.1
50166;BME280;36071;48.140;11.516;2023-04-19T02:45:54;95840.0;;;8.6;92.9
50166;BME280;36071;48.140;11.516;2023-04-19T02:50:54;95840.0;;;8.6;93.8
50166;BME280;36071;48.140;11.516;2023-04-19T03:00:54;95830.0;;;8.7;93.9
50166;BME280;36071;48.140;11.516;2023-04-19T03:05:54;95830.0;;;8.6;94.1
50166;BME280;36071;48.140;11.516;2023-04-19T03:10:54;95840.0;;;8.6;93.8
50166;BME280;36071;48.140;11.516;2023-04-19T03:15:54;95820.0;;;8.6;94.4
50166;BME280;36071;48.140;11.516;2023-04-19T03:20:54;95820.0;;;8.6;95.0
50166;BME280;36071;48.140;11.516;2023-04-19T03:25:54;95810.0;;;8.6;94.4
50166;BME280;36071;48.140;11.516;2023-04-19T03:30:54;95810.0;;;8.6;94.2
50166;BME280;36071;48.140;11.516;2023-04-19T03:40:54;95810.0;;;8.6;94.0
50166;BME280;36071;48.140;11.516;2023-04-19T03:45:54;95800.0;;;8.5;94.6
50166;BME280;36071;48.140;11.516;2023-04-19T03:50:54;95790.0;;;8.5;94.0
50166;BME280;36071;48.140;11.516;2023-04-19T03:55:54;95800.0;;;8.6;93.6
50166;BME280;36071;48.140;11.516;2023-04-19T04:00:54;95790.0;;;8.6;93.8
50166;BME280;36071;48.140;11.516;2023-04-19T04:05:54;95800.0;;;8.6;92.7
50166;BME280;36071;48.140;11.516;2023-04-19T04:10:54;95810.0;;;8.6;93.0
50166;BME280;36071;48.140;11.516;2023-04-19T04:15:54;95800.0;;;8.5;93.4
50166;BME280;36071;48.140;11.516;2023-04-19T04:20:54;95800.0;;;8.5;93.6
50166;BME280;36071;48.140;11.516;2023-04-19T04:25:55;95800.0;;;8.6;93.3
50166;BME280;36071;48.140;11.516;2023-04-19T04:30:54;95810.0;;;8.5;93.2
50166;BME280;36071;48.140;11.516;2023-04-19T04:35:54;95810.0;;;8.5;93.9
50166;BME280;36071;48.140;11.516;2023-04-19T04:40:54;95810.0;;;8.5;93.7
50166;BME280;36071;48.140;11.516;2023-04-19T04:45:54;95810.0;;;8.5;93.3
50166;BME280;36071;48.140;11.516;2023-04-19T04:50:54;95810.0;;;8.4;93.9
50166;BME280;36071;48.140;11.516;2023-04-19T04:55:54;95810.0;;;8.4;95.5
50166;BME280;36071;48.140;11.516;2023-04-19T05:00:54;95810.0;;;8.4;95.0
50166;BME280;36071;48.140;11.516;2023-04-19T05:05:54;95800.0;;;8.3;95.5
50166;BME280;36071;48.140;11.516;2023-04-19T05:10:54;95800.0;;;8.3;95.7
50166;BME280;36071;48.140;11.516;2023-04-19T05:15:54;95800.0;;;8.3;96.0
50166;BME280;36071;48.140;11.516;2023-04-19T05:20:54;95790.0;;;8.3;96.8
50166;BME280;36071;48.140;11.516;2023-04-19T05:30:54;95800.0;;;8.4;96.3
50166;BME280;36071;48.140;11.516;2023-04-19T05:35:54;95790.0;;;8.3;96.5
50166;BME280;36071;48.140;11.516;2023-04-19T05:40:54;95790.0;;;8.3;96.1
50166;BME280;36071;48.140;11.516;2023-04-19T05:45:56;95800.0;;;8.3;96.1
50166;BME280;36071;48.140;11.516;2023-04-19T05:50:54;95790.0;;;8.3;96.0
50166;BME280;36071;48.140;11.516;2023-04-19T05:55:54;95800.0;;;8.3;96.0
50166;BME280;36071;48.140;11.516;2023-04-19T06:00:54;95800.0;;;8.3;94.2
50166;BME280;36071;48.140;11.516;2023-04-19T06:05:54;95790.0;;;8.3;94.2
50166;BME280;36071;48.140;11.516;2023-04-19T06:10:54;95790.0;;;8.4;93.5
50166;BME280;36071;48.140;11.516;2023-04-19T06:15:54;95790.0;;;8.4;93.8
50166;BME280;36071;48.140;11.516;2023-04-19T06:25:54;95790.0;;;8.4;93.2
50166;BME280;36071;48.140;11.516;2023-04-19T06:35:54;95790.0;;;8.4;93.3
50166;BME280;36071;48.140;11.516;2023-04-19T06:40:54;95790.0;;;8.4;93.0
50166;BME280;36071;48.140;11.516;2023-04-19T06:45:57;95790.0;;;8.5;92.7
50166;BME280;36071;48.140;11.516;2023-04-19T06:50:54;95790.0;;;8.4;92.7
50166;BME280;36071;48.140;11.516;2023-04-19T06:55:56;95790.0;;;8.5;92.5
50166;BME280;36071;48.140;11.516;2023-04-19T07:00:54;95780.0;;;8.5;92.0
50166;BME280;36071;48.140;11.516;2023-04-19T07:05:54;95780.0;;;8.5;90.5
50166;BME280;36071;48.140;11.516;2023-04-19T07:10:54;95780.0;;;8.5;90.7
50166;BME280;36071;48.140;11.516;2023-04-19T07:15:54;95780.0;;;8.5;90.8
50166;BME280;36071;48.140;11.516;2023-04-19T07:20:54;95780.0;;;8.5;91.0
50166;BME280;36071;48.140;11.516;2023-04-19T07:25:54;95770.0;;;8.6;89.1
50166;BME280;36071;48.140;11.516;2023-04-19T07:30:59;95770.0;;;8.6;90.0
50166;BME280;36071;48.140;11.516;2023-04-19T07:35:54;95770.0;;;8.7;90.4
50166;BME280;36071;48.140;11.516;2023-04-19T07:40:54;95760.0;;;8.8;89.5
50166;BME280;36071;48.140;11.516;2023-04-19T07:45:54;95760.0;;;8.8;88.0
50166;BME280;36071;48.140;11.516;2023-04-19T07:50:54;95760.0;;;8.8;87.5
50166;BME280;36071;48.140;11.516;2023-04-19T07:55:54;95750.0;;;8.9;87.3
50166;BME280;36071;48.140;11.516;2023-04-19T08:00:54;95750.0;;;9.0;85.1
50166;BME280;36071;48.140;11.516;2023-04-19T08:05:54;95760.0;;;9.2;85.6
50166;BME280;36071;48.140;11.516;2023-04-19T08:10:54;95740.0;;;9.2;84.0
50166;BME280;36071;48.140;11.516;2023-04-19T08:15:54;95740.0;;;9.2;85.0
50166;BME280;36071;48.140;11.516;2023-04-19T08:20:54;95750.0;;;9.3;85.7
50166;BME280;36071;48.140;11.516;2023-04-19T08:25:54;95740.0;;;9.4;85.4
50166;BME280;36071;48.140;11.516;2023-04-19T08:30:54;95740.0;;;9.4;84.3
50166;BME280;36071;48.140;11.516;2023-04-19T08:35:54;95740.0;;;9.4;83.5
50166;BME280;36071;48.140;11.516;2023-04-19T08:40:54;95720.0;;;9.4;82.7
50166;BME280;36071;48.140;11.516;2023-04-19T08:45:54;95740.0;;;9.5;81.6
50166;BME280;36071;48.140;11.516;2023-04-19T08:50:54;95730.0;;;9.6;81.4
50166;BME280;36071;48.140;11.516;2023-04-19T08:55:54;95740.0;;;9.8;81.4
50166;BME280;36071;48.140;11.516;2023-04-19T09:00:54;95730.0;;;9.9;80.2
50166;BME280;36071;48.140;11.516;2023-04-19T09:05:54;95720.0;;;10.0;79.0
50166;BME280;36071;48.140;11.516;2023-04-19T09:10:54;95710.0;;;9.9;78.6
50166;BME280;36071;48.140;11.516;2023-04-19T09:15:54;95720.0;;;9.9;76.5
50166;BME280;36071;48.140;11.516;2023-04-19T09:20:54;95710.0;;;9.9;76.4
50166;BME280;36071;48.140;11.516;2023-04-19T09:25:54;95710.0;;;10.1;75.3
50166;BME280;36071;48.140;11.516;2023-04-19T09:30:55;95700.0;;;10.1;74.8
50166;BME280;36071;48.140;11.516;2023-04-19T09:35:54;95700.0;;;10.1;75.5
50166;BME280;36071;48.140;11.516;2023-04-19T09:41:04;95690.0;;;10.3;74.8
50166;BME280;36071;48.140;11.516;2023-04-19T09:45:54;95680.0;;;10.5;73.6
50166;BME280;36071;48.140;11.516;2023-04-19T09:50:54;95670.0;;;10.8;72.7
50166;BME280;36071;48.140;11.516;2023-04-19T09:55:54;95670.0;;;10.9;71.7
50166;BME280;36071;48.140;11.516;2023-04-19T10:00:54;95660.0;;;10.8;70.6
50166;BME280;36071;48.140;11.516;2023-04-19T10:05:54;95660.0;;;11.0;70.2
50166;BME280;36071;48.140;11.516;2023-04-19T10:10:54;95650.0;;;10.9;69.9
50166;BME280;36071;48.140;11.516;2023-04-19T10:15:54;95650.0;;;10.8;69.9
50166;BME280;36071;48.140;11.516;2023-04-19T10:20:56;95640.0;;;11.1;70.0
50166;BME280;36071;48.140;11.516;2023-04-19T10:25:54;95630.0;;;11.4;68.2
50166;BME280;36071;48.140;11.516;2023-04-19T10:30:54;95630.0;;;11.4;67.3
50166;BME280;36071;48.140;11.516;2023-04-19T10:35:54;95620.0;;;11.2;68.8
50166;BME280;36071;48.140;11.516;2023-04-19T10:40:55;95610.0;;;11.2;69.0
50166;BME280;36071;48.140;11.516;2023-04-19T10:45:54;95610.0;;;11.1;70.3
50166;BME280;36071;48.140;11.516;2023-04-19T10:50:56;95600.0;;;10.9;71.2
50166;BME280;36071;48.140;11.516;2023-04-19T10:55:54;95610.0;;;10.7;72.4
50166;BME280;36071;48.140;11.516;2023-04-19T11:01:11;95610.0;;;10.6;73.2
50166;BME280;36071;48.140;11.516;2023-04-19T11:06:16;95600.0;;;10.5;72.8
50166;BME280;36071;48.140;11.516;2023-04-19T11:10:54;95590.0;;;10.5;71.8
50166;BME280;36071;48.140;11.516;2023-04-19T11:15:56;95580.0;;;10.5;70.9
50166;BME280;36071;48.140;11.516;2023-04-19T11:20:54;95570.0;;;10.6;71.5
50166;BME280;36071;48.140;11.516;2023-04-19T11:25:54;95570.0;;;10.6;71.7
50166;BME280;36071;48.140;11.516;2023-04-19T11:30:54;95570.0;;;10.6;71.8
50166;BME280;36071;48.140;11.516;2023-04-19T11:35:54;95560.0;;;10.8;72.6
50166;BME280;36071;48.140;11.516;2023-04-19T11:40:57;95550.0;;;10.8;72.6
50166;BME280;36071;48.140;11.516;2023-04-19T11:45:54;95560.0;;;10.9;73.7
50166;BME280;36071;48.140;11.516;2023-04-19T11:50:56;95560.0;;;10.7;73.9
50166;BME280;36071;48.140;11.516;2023-04-19T11:55:55;95560.0;;;10.6;76.1
50166;BME280;36071;48.140;11.516;2023-04-19T12:00:54;95560.0;;;10.5;77.9
50166;BME280;36071;48.140;11.516;2023-04-19T12:05:54;95560.0;;;10.4;79.3
50166;BME280;36071;48.140;11.516;2023-04-19T12:10:54;95560.0;;;10.2;81.4
50166;BME280;36071;48.140;11.516;2023-04-19T12:15:54;95560.0;;;10.2;81.9
50166;BME280;36071;48.140;11.516;2023-04-19T12:20:54;95550.0;;;10.1;82.9
50166;BME280;36071;48.140;11.516;2023-04-19T12:25:54;95550.0;;;10.2;83.1
50166;BME280;36071;48.140;11.516;2023-04-19T12:30:54;95540.0;;;10.2;84.1
50166;BME280;36071;48.140;11.516;2023-04-19T12:35:54;95550.0;;;10.3;84.5
50166;BME280;36071;48.140;11.516;2023-04-19T12:40:54;95540.0;;;10.1;87.1
50166;BME280;36071;48.140;11.516;2023-04-19T12:45:54;95540.0;;;10.1;84.6
50166;BME280;36071;48.140;11.516;2023-04-19T12:50:54;95550.0;;;10.1;82.0
50166;BME280;36071;48.140;11.516;2023-04-19T12:55:54;95540.0;;;10.0;81.0
50166;BME280;36071;48.140;11.516;2023-04-19T13:00:54;95540.0;;;9.9;82.4
50166;BME280;36071;48.140;11.516;2023-04-19T13:05:54;95540.0;;;10.0;82.9
50166;BME280;36071;48.140;11.516;2023-04-19T13:10:54;95530.0;;;9.8;84.1
50166;BME280;36071;48.140;11.516;2023-04-19T13:15:54;95540.0;;;9.9;84.5
50166;BME280;36071;48.140;11.516;2023-04-19T13:20:54;95530.0;;;10.0;86.3
50166;BME280;36071;48.140;11.516;2023-04-19T13:25:54;95520.0;;;9.9;87.3
50166;BME280;36071;48.140;11.516;2023-04-19T13:30:54;95520.0;;;9.9;85.9
50166;BME280;36071;48.140;11.516;2023-04-19T13:35:54;95520.0;;;9.8;85.7
50166;BME280;36071;48.140;11.516;2023-04-19T13:40:54;95410.0;;;9.1;85.1
50166;BME280;36071;48.140;11.516;2023-04-19T13:45:54;95520.0;;;9.8;85.3
50166;BME280;36071;48.140;11.516;2023-04-19T13:50:54;95510.0;;;9.6;87.6
50166;BME280;36071;48.140;11.516;2023-04-19T13:55:54;95520.0;;;9.6;87.2
50166;BME280;36071;48.140;11.516;2023-04-19T14:00:54;95510.0;;;9.6;88.1
50166;BME280;36071;48.140;11.516;2023-04-19T14:05:54;95510.0;;;9.6;86.2
50166;BME280;36071;48.140;11.516;2023-04-19T14:10:54;95520.0;;;9.5;85.5
50166;BME280;36071;48.140;11.516;2023-04-19T14:15:57;95530.0;;;9.5;85.5
50166;BME280;36071;48.140;11.516;2023-04-19T14:20:54;95530.0;;;9.3;83.4
50166;BME280;36071;48.140;11.516;2023-04-19T14:25:54;95540.0;;;9.4;82.0
50166;BME280;36071;48.140;11.516;2023-04-19T14:30:54;95530.0;;;9.3;81.6
50166;BME280;36071;48.140;11.516;2023-04-19T14:35:54;95530.0;;;9.3;82.5
50166;BME280;36071;48.140;11.516;2023-04-19T14:40:54;95530.0;;;9.2;84.1
50166;BME280;36071;48.140;11.516;2023-04-19T14:45:54;95540.0;;;9.0;80.3
50166;BME280;36071;48.140;11.516;2023-04-19T14:50:54;95540.0;;;8.9;80.3
50166;BME280;36071;48.140;11.516;2023-04-19T14:55:54;95540.0;;;8.6;79.3
50166;BME280;36071;48.140;11.516;2023-04-19T15:00:54;95540.0;;;8.6;79.9
50166;BME280;36071;48.140;11.516;2023-04-19T15:05:54;95540.0;;;8.5;81.5
50166;BME280;36071;48.140;11.516;2023-04-19T15:10:54;95540.0;;;8.2;79.3
50166;BME280;36071;48.140;11.516;2023-04-19T15:15:54;95550.0;;;8.2;78.1
50166;BME280;36071;48.140;11.516;2023-04-19T15:20:54;95560.0;;;8.2;78.5
50166;BME280;36071;48.140;11.516;2023-04-19T15:25:54;95560.0;;;8.1;77.7
50166;BME280;36071;48.140;11.516;2023-04-19T15:30:56;95560.0;;;8.2;76.8
50166;BME280;36071;48.140;11.516;2023-04-19T15:35:54;95560.0;;;8.0;78.7
50166;BME280;36071;48.140;11.516;2023-04-19T15:40:54;95570.0;;;7.9;79.1
50166;BME280;36071;48.140;11.516;2023-04-19T15:45:54;95550.0;;;7.8;79.5
50166;BME280;36071;48.140;11.516;2023-04-19T15:50:54;95570.0;;;7.9;79.5
50166;BME280;36071;48.140;11.516;2023-04-19T15:55:54;95580.0;;;7.9;78.1
50166;BME280;36071;48.140;11.516;2023-04-19T16:00:54;95580.0;;;7.8;76.8
50166;BME280;36071;48.140;11.516;2023-04-19T16:05:54;95580.0;;;7.7;76.8
50166;BME280;36071;48.140;11.516;2023-04-19T16:10:54;95580.0;;;7.6;77.7
50166;BME280;36071;48.140;11.516;2023-04-19T16:15:54;95590.0;;;7.6;78.5
50166;BME280;36071;48.140;11.516;2023-04-19T16:20:55;95590.0;;;7.5;78.9
50166;BME280;36071;48.140;11.516;2023-04-19T16:25:54;95590.0;;;7.5;78.3
50166;BME280;36071;48.140;11.516;2023-04-19T16:30:54;95600.0;;;7.3;76.5
50166;BME280;36071;48.140;11.516;2023-04-19T16:35:54;95590.0;;;7.2;77.5
50166;BME280;36071;48.140;11.516;2023-04-19T16:40:55;95600.0;;;7.2;77.6
50166;BME280;36071;48.140;11.516;2023-04-19T16:45:54;95610.0;;;7.2;77.8
50166;BME280;36071;48.140;11.516;2023-04-19T16:50:54;95610.0;;;7.0;76.0
50166;BME280;36071;48.140;11.516;2023-04-19T16:55:54;95600.0;;;6.9;74.8
50166;BME280;36071;48.140;11.516;2023-04-19T17:00:54;95600.0;;;6.9;75.7
50166;BME280;36071;48.140;11.516;2023-04-19T17:05:54;95590.0;;;6.8;74.6
50166;BME280;36071;48.140;11.516;2023-04-19T17:10:54;95590.0;;;6.9;75.0
50166;BME280;36071;48.140;11.516;2023-04-19T17:15:54;95590.0;;;6.8;72.6
50166;BME280;36071;48.140;11.516;2023-04-19T17:20:54;95570.0;;;6.7;73.0
50166;BME280;36071;48.140;11.516;2023-04-19T17:25:54;95560.0;;;6.7;74.1
50166;BME280;36071;48.140;11.516;2023-04-19T17:30:54;95550.0;;;6.4;74.9
50166;BME280;36071;48.140;11.516;2023-04-19T17:35:54;95550.0;;;6.3;75.6
50166;BME280;36071;48.140;11.516;2023-04-19T17:40:54;95540.0;;;6.3;75.6
50166;BME280;36071;48.140;11.516;2023-04-19T17:45:54;95540.0;;;6.2;75.6
50166;BME280;36071;48.140;11.516;2023-04-19T17:50:54;95550.0;;;6.2;75.9
50166;BME280;36071;48.140;11.516;2023-04-19T17:55:54;95550.0;;;6.2;76.0
50166;BME280;36071;48.140;11.516;2023-04-19T18:00:54;95550.0;;;6.2;76.2
50166;BME280;36071;48.140;11.516;2023-04-19T18:05:54;95560.0;;;6.1;74.8
50166;BME280;36071;48.140;11.516;2023-04-19T18:10:54;95560.0;;;6.0;76.1
50166;BME280;36071;48.140;11.516;2023-04-19T18:15:54;95550.0;;;6.0;76.0
50166;BME280;36071;48.140;11.516;2023-04-19T18:20:54;95540.0;;;6.0;76.6
50166;BME280;36071;48.140;11.516;2023-04-19T18:25:54;95480.0;;;5.4;78.5
50166;BME280;36071;48.140;11.516;2023-04-19T18:30:54;95550.0;;;5.9;78.1
50166;BME280;36071;48.140;11.516;2023-04-19T18:35:54;95560.0;;;5.8;78.4
50166;BME280;36071;48.140;11.516;2023-04-19T18:40:54;95580.0;;;5.9;78.3
50166;BME280;36071;48.140;11.516;2023-04-19T18:45:54;95580.0;;;5.8;78.9
50166;BME280;36071;48.140;11.516;2023-04-19T18:50:54;95600.0;;;5.9;78.1
50166;BME280;36071;48.140;11.516;2023-04-19T18:55:54;95600.0;;;5.8;79.3
50166;BME280;36071;48.140;11.516;2023-04-19T19:00:54;95600.0;;;5.9;79.0
50166;BME280;36071;48.140;11.516;2023-04-19T19:05:54;95610.0;;;5.8;77.7
50166;BME280;36071;48.140;11.516;2023-04-19T19:10:54;95600.0;;;5.8;78.7
50166;BME280;36071;48.140;11.516;2023-04-19T19:15:54;95600.0;;;5.7;79.0
50166;BME280;36071;48.140;11.516;2023-04-19T19:20:56;95610.0;;;5.8;78.5
50166;BME280;36071;48.140;11.516;2023-04-19T19:25:54;95610.0;;;5.7;78.5
50166;BME280;36071;48.140;11.516;2023-04-19T19:30:54;95600.0;;;5.7;79.2
50166;BME280;36071;48.140;11.516;2023-04-19T19:35:54;95610.0;;;5.7;79.5
50166;BME280;36071;48.140;11.516;2023-04-19T19:40:54;95610.0;;;5.8;78.5
50166;BME280;36071;48.140;11.516;2023-04-19T19:45:54;95620.0;;;5.8;77.8
50166;BME280;36071;48.140;11.516;2023-04-19T19:50:54;95610.0;;;5.8;80.9
50166;BME280;36071;48.140;11.516;2023-04-19T19:55:54;95600.0;;;5.8;78.4
50166;BME280;36071;48.140;11.516;2023-04-19T20:00:54;95600.0;;;5.9;77.7
50166;BME280;36071;48.140;11.516;2023-04-19T20:05:54;95590.0;;;5.9;79.7
50166;BME280;36071;48.140;11.516;2023-04-19T20:10:54;95590.0;;;5.9;78.9
50166;BME280;36071;48.140;11.516;2023-04-19T20:15:54;95580.0;;;5.8;78.5
50166;BME280;36071;48.140;11.516;2023-04-19T20:20:54;95580.0;;;5.8;79.6
50166;BME280;36071;48.140;11.516;2023-04-19T20:25:54;95590.0;;;5.8;79.8
50166;BME280;36071;48.140;11.516;2023-04-19T20:30:54;95590.0;;;5.8;81.8
50166;BME280;36071;48.140;11.516;2023-04-19T20:35:54;95580.0;;;5.8;80.2
50166;BME280;36071;48.140;11.516;2023-04-19T20:40:54;95580.0;;;5.9;78.9
50166;BME280;36071;48.140;11.516;2023-04-19T20:45:54;95580.0;;;5.9;79.7
50166;BME280;36071;48.140;11.516;2023-04-19T20:50:54;95580.0;;;5.9;80.1
50166;BME280;36071;48.140;11.516;2023-04-19T21:00:54;95580.0;;;5.9;80.2
50166;BME280;36071;48.140;11.516;2023-04-19T21:05:54;95580.0;;;5.8;81.3
50166;BME280;36071;48.140;11.516;2023-04-19T21:10:54;95570.0;;;5.8;81.1
50166;BME280;36071;48.140;11.516;2023-04-19T21:15:54;95560.0;;;5.8;83.3
50166;BME280;36071;48.140;11.516;2023-04-19T21:20:54;95550.0;;;5.8;83.4
50166;BME280;36071;48.140;11.516;2023-04-19T21:25:54;95540.0;;;5.7;83.3
50166;BME280;36071;48.140;11.516;2023-04-19T21:30:54;95540.0;;;5.7;84.4
50166;BME280;36071;48.140;11.516;2023-04-19T21:35:54;95550.0;;;5.7;84.9
50166;BME280;36071;48.140;11.516;2023-04-19T21:40:54;95540.0;;;5.7;85.3
50166;BME280;36071;48.140;11.516;2023-04-19T21:45:54;95540.0;;;5.5;86.1
50166;BME280;36071;48.140;11.516;2023-04-19T21:50:54;95530.0;;;5.7;85.4
50166;BME280;36071;48.140;11.516;2023-04-19T21:56:10;95530.0;;;5.7;84.0
50166;BME280;36071;48.140;11.516;2023-04-19T22:00:54;95530.0;;;5.7;83.0
50166;BME280;36071;48.140;11.516;2023-04-19T22:05:54;95530.0;;;5.7;83.9
50166;BME280;36071;48.140;11.516;2023-04-19T22:10:54;95530.0;;;5.7;83.6
50166;BME280;36071;48.140;11.516;2023-04-19T22:15:54;95510.0;;;5.7;84.0
50166;BME280;36071;48.140;11.516;2023-04-19T22:20:54;95510.0;;;5.6;83.9
50166;BME280;36071;48.140;11.516;2023-04-19T22:25:54;95510.0;;;5.6;84.5
50166;BME280;36071;48.140;11.516;2023-04-19T22:30:54;95500.0;;;5.6;85.4
50166;BME280;36071;48.140;11.516;2023-04-19T22:35:54;95500.0;;;5.6;85.5
50166;BME280;36071;48.140;11.516;2023-04-19T22:40:54;95490.0;;;5.6;86.2
50166;BME280;36071;48.140;11.516;2023-04-19T22:45:54;95490.0;;;5.5;85.9
50166;BME280;36071;48.140;11.516;2023-04-19T22:50:54;95500.0;;;5.5;86.4
50166;BME280;36071;48.140;11.516;2023-04-19T22:55:54;95500.0;;;5.5;87.3
50166;BME280;36071;48.140;11.516;2023-04-19T23:00:54;95500.0;;;5.5;87.6
50166;BME280;36071;48.140;11.516;2023-04-19T23:05:54;95490.0;;;5.5;87.6
50166;BME280;36071;48.140;11.516;2023-04-19T23:10:54;95470.0;;;5.5;87.5
50166;BME280;36071;48.140;11.516;2023-04-19T23:15:54;95470.0;;;5.5;87.7
50166;BME280;36071;48.140;11.516;2023-04-19T23:20:54;95460.0;;;5.5;87.3
50166;BME280;36071;48.140;11.516;2023-04-19T23:25:54;95460.0;;;5.4;87.9
50166;BME280;36071;48.140;11.516;2023-04-19T23:30:54;95460.0;;;5.4;87.3
50166;BME280;36071;48.140;11.516;2023-04-19T23:35:54;95450.0;;;5.4;87.7
50166;BME280;36071;48.140;11.516;2023-04-19T23:40:54;95440.0;;;5.3;88.9
50166;BME280;36071;48.140;11.516;2023-04-19T23:45:54;95440.0;;;5.4;88.3
50166;BME280;36071;48.140;11.516;2023-04-19T23:50:54;95420.0;;;5.4;88.6
50166;BME280;36071;48.140;11.516;2023-04-19T23:55:54;95420.0;;;5.3;89.8
